createdAt,value
2023-07-18T00:00:34.149Z,90.10
2023-07-18T00:03:20.733Z,90.20
2023-07-18T00:06:06.719Z,90.20
2023-07-18T00:08:52.496Z,90.10
2023-07-18T00:11:38.381Z,90.00
2023-07-18T00:14:24.449Z,89.70
2023-07-18T00:17:09.726Z,89.60
2023-07-18T00:19:55.434Z,89.60
2023-07-18T00:22:49.541Z,89.20
2023-07-18T00:25:35.357Z,89.30
2023-07-18T00:28:20.924Z,89.50
2023-07-18T00:31:06.468Z,90.00
2023-07-18T00:33:52.643Z,90.10
2023-07-18T00:36:38.648Z,90.20
2023-07-18T00:39:24.757Z,90.40
2023-07-18T00:42:10.261Z,90.70
2023-07-18T00:44:55.858Z,90.40
2023-07-18T00:47:44.782Z,90.60
2023-07-18T00:50:30.764Z,90.60
2023-07-18T00:53:16.088Z,90.70
2023-07-18T00:56:02.608Z,91.00
2023-07-18T00:58:48.274Z,91.30
2023-07-18T01:01:35.703Z,91.10
2023-07-18T01:04:22.105Z,91.40
2023-07-18T01:07:07.924Z,91.40
2023-07-18T01:09:54.857Z,91.50
2023-07-18T01:12:40.214Z,91.60
2023-07-18T01:15:31.399Z,91.80
2023-07-18T01:18:17.150Z,91.80
2023-07-18T01:21:05.667Z,91.90
2023-07-18T01:23:51.901Z,91.90
2023-07-18T01:26:37.601Z,91.90
2023-07-18T01:29:23.390Z,92.00
2023-07-18T01:32:09.034Z,92.00
2023-07-18T01:35:00.300Z,92.00
2023-07-18T01:37:46.223Z,92.00
2023-07-18T01:40:31.521Z,92.20
2023-07-18T01:43:16.849Z,92.30
2023-07-18T01:46:05.148Z,92.30
2023-07-18T01:48:50.669Z,92.40
2023-07-18T01:51:38.069Z,92.40
2023-07-18T01:54:24.096Z,92.30
2023-07-18T01:57:11.520Z,92.30
2023-07-18T01:59:56.958Z,92.30
2023-07-18T02:02:43.175Z,92.40
2023-07-18T02:05:34.556Z,92.50
2023-07-18T02:08:20.431Z,92.60
2023-07-18T02:11:05.956Z,92.70
2023-07-18T02:13:51.829Z,92.70
2023-07-18T02:16:40.907Z,92.90
2023-07-18T02:19:26.290Z,92.70
2023-07-18T02:22:11.818Z,92.70
2023-07-18T02:24:57.788Z,92.60
2023-07-18T02:27:43.493Z,92.40
2023-07-18T02:30:29.037Z,92.40
2023-07-18T02:33:18.582Z,92.30
2023-07-18T02:36:07.465Z,92.40
2023-07-18T02:38:53.201Z,92.50
2023-07-18T02:41:41.393Z,92.50
2023-07-18T02:44:27.366Z,92.50
2023-07-18T02:47:13.844Z,92.50
2023-07-18T02:49:59.653Z,92.70
2023-07-18T02:52:45.410Z,92.80
2023-07-18T02:55:34.209Z,92.80
2023-07-18T02:58:19.862Z,93.00
2023-07-18T03:01:05.434Z,93.10
2023-07-18T03:03:51.270Z,93.10
2023-07-18T03:06:37.327Z,93.20
2023-07-18T03:09:23.145Z,93.20
2023-07-18T03:12:08.871Z,93.30
2023-07-18T03:14:56.041Z,93.40
2023-07-18T03:17:42.793Z,93.40
2023-07-18T03:20:28.438Z,93.30
2023-07-18T03:23:13.961Z,93.10
2023-07-18T03:25:59.695Z,93.20
2023-07-18T03:28:44.944Z,93.40
2023-07-18T03:31:30.576Z,93.30
2023-07-18T03:34:16.056Z,93.50
2023-07-18T03:37:03.152Z,93.40
2023-07-18T03:39:48.765Z,93.50
2023-07-18T03:42:35.306Z,93.40
2023-07-18T03:45:24.079Z,93.50
2023-07-18T03:48:09.959Z,93.50
2023-07-18T03:50:55.470Z,93.60
2023-07-18T03:53:41.209Z,93.50
2023-07-18T03:56:26.654Z,93.70
2023-07-18T03:59:11.876Z,93.90
2023-07-18T04:01:58.930Z,94.20
2023-07-18T04:04:44.801Z,94.30
2023-07-18T04:07:30.574Z,93.80
2023-07-18T04:10:15.944Z,93.80
2023-07-18T04:13:04.067Z,93.90
2023-07-18T04:15:49.333Z,94.40
2023-07-18T04:18:35.658Z,94.50
2023-07-18T04:21:21.204Z,94.70
2023-07-18T04:24:09.851Z,94.50
2023-07-18T04:26:55.386Z,94.70
2023-07-18T04:29:41.005Z,94.70
2023-07-18T04:32:26.688Z,94.70
2023-07-18T04:35:12.109Z,94.90
2023-07-18T04:38:01.118Z,94.60
2023-07-18T04:40:47.668Z,94.70
2023-07-18T04:43:32.899Z,94.70
2023-07-18T04:46:18.574Z,94.60
2023-07-18T04:49:04.474Z,94.60
2023-07-18T04:51:51.832Z,94.70
2023-07-18T04:54:38.920Z,94.60
2023-07-18T04:57:25.467Z,94.60
2023-07-18T05:00:11.760Z,94.50
2023-07-18T05:02:58.168Z,94.40
2023-07-18T05:05:46.349Z,94.30
2023-07-18T05:08:31.833Z,94.10
2023-07-18T05:11:19.299Z,93.90
2023-07-18T05:14:05.283Z,93.70
2023-07-18T05:16:52.637Z,93.60
2023-07-18T05:19:38.033Z,93.50
2023-07-18T05:22:24.390Z,93.40
2023-07-18T05:25:11.466Z,93.20
2023-07-18T05:27:59.588Z,93.20
2023-07-18T05:30:46.705Z,93.20
2023-07-18T05:33:31.839Z,93.30
2023-07-18T05:36:17.748Z,93.40
2023-07-18T05:39:04.296Z,93.50
2023-07-18T05:41:49.807Z,93.70
2023-07-18T05:44:35.436Z,93.80
2023-07-18T05:47:20.758Z,93.80
2023-07-18T05:50:07.334Z,93.80
2023-07-18T05:52:53.098Z,93.70
2023-07-18T05:55:39.679Z,93.70
2023-07-18T05:58:25.006Z,93.60
2023-07-18T06:01:13.835Z,93.60
2023-07-18T06:04:00.230Z,93.80
2023-07-18T06:06:46.108Z,93.90
2023-07-18T06:09:34.525Z,94.00
2023-07-18T06:12:23.315Z,94.00
2023-07-18T06:15:09.420Z,94.30
2023-07-18T06:17:56.935Z,94.50
2023-07-18T06:20:42.770Z,94.60
2023-07-18T06:23:31.616Z,94.60
2023-07-18T06:26:16.938Z,94.70
2023-07-18T06:29:02.424Z,94.70
2023-07-18T06:31:49.187Z,94.70
2023-07-18T06:34:42.619Z,94.60
2023-07-18T06:37:28.271Z,94.70
2023-07-18T06:40:14.355Z,94.50
2023-07-18T06:43:00.346Z,94.40
2023-07-18T06:45:46.989Z,94.50
2023-07-18T06:48:32.462Z,94.00
2023-07-18T06:51:18.366Z,93.90
2023-07-18T06:54:04.290Z,94.00
2023-07-18T06:56:49.948Z,94.20
2023-07-18T06:59:35.858Z,93.90
2023-07-18T07:02:21.621Z,94.00
2023-07-18T07:05:07.335Z,93.90
2023-07-18T07:07:54.464Z,93.60
2023-07-18T07:10:43.881Z,93.70
2023-07-18T07:13:29.673Z,93.70
2023-07-18T07:16:15.709Z,93.90
2023-07-18T07:19:01.039Z,93.90
2023-07-18T07:21:46.858Z,94.00
2023-07-18T07:24:32.505Z,93.80
2023-07-18T07:27:18.100Z,93.50
2023-07-18T07:30:03.790Z,93.50
2023-07-18T07:32:52.871Z,94.10
2023-07-18T07:35:38.454Z,93.60
2023-07-18T07:38:23.885Z,93.40
2023-07-18T07:41:09.469Z,93.90
2023-07-18T07:43:55.125Z,93.00
2023-07-18T07:46:43.366Z,93.20
2023-07-18T07:49:28.820Z,93.00
2023-07-18T07:52:14.415Z,92.40
2023-07-18T07:55:00.284Z,92.40
2023-07-18T07:57:46.687Z,92.00
2023-07-18T08:00:32.453Z,91.40
2023-07-18T08:03:18.063Z,91.60
2023-07-18T08:06:03.665Z,91.50
2023-07-18T08:08:49.398Z,91.70
2023-07-18T08:11:34.654Z,90.50
2023-07-18T08:14:20.360Z,90.70
2023-07-18T08:17:07.275Z,90.80
2023-07-18T08:19:52.689Z,90.40
2023-07-18T08:22:38.232Z,90.30
2023-07-18T08:25:24.059Z,89.10
2023-07-18T08:28:09.535Z,89.40
2023-07-18T08:30:54.988Z,88.90
2023-07-18T08:33:40.549Z,87.90
2023-07-18T08:36:27.148Z,87.10
2023-07-18T08:39:12.709Z,87.20
2023-07-18T08:41:59.461Z,85.50
2023-07-18T08:44:46.672Z,83.10
2023-07-18T08:47:32.941Z,80.50
2023-07-18T08:50:19.040Z,79.20
2023-07-18T08:53:06.383Z,79.60
2023-07-18T08:55:52.722Z,79.80
2023-07-18T08:58:39.000Z,77.50
2023-07-18T09:01:25.869Z,77.70
2023-07-18T09:04:11.610Z,75.00
2023-07-18T09:06:59.254Z,74.70
2023-07-18T09:09:48.105Z,74.50
2023-07-18T09:12:37.247Z,72.20
2023-07-18T09:15:23.624Z,72.00
2023-07-18T09:18:14.254Z,70.30
2023-07-18T09:21:09.698Z,70.10
2023-07-18T09:23:55.091Z,68.10
2023-07-18T09:26:43.494Z,67.40
2023-07-18T09:29:29.573Z,67.90
2023-07-18T09:32:22.638Z,68.20
2023-07-18T09:35:11.415Z,67.40
2023-07-18T09:37:57.375Z,66.90
2023-07-18T09:40:45.442Z,66.00
2023-07-18T09:43:31.546Z,66.10
2023-07-18T09:46:18.486Z,63.70
2023-07-18T09:49:04.718Z,64.80
2023-07-18T09:52:04.685Z,64.40
2023-07-18T09:54:53.777Z,62.60
2023-07-18T09:57:42.101Z,63.20
2023-07-18T10:00:28.180Z,62.30
2023-07-18T10:03:14.302Z,62.90
2023-07-18T10:06:03.228Z,60.90
2023-07-18T10:08:49.488Z,61.90
2023-07-18T10:12:01.398Z,62.50
2023-07-18T10:14:52.239Z,59.30
2023-07-18T10:17:40.498Z,58.80
2023-07-18T10:20:37.031Z,59.10
2023-07-18T10:23:40.991Z,59.40
2023-07-18T10:26:33.476Z,58.60
2023-07-18T10:29:22.445Z,58.40
2023-07-18T10:32:34.149Z,58.40
2023-07-18T10:35:44.510Z,57.80
2023-07-18T10:38:38.698Z,56.80
2023-07-18T10:41:24.044Z,57.30
2023-07-18T10:44:16.502Z,57.80
2023-07-18T10:47:02.549Z,57.30
2023-07-18T10:49:48.826Z,57.20
2023-07-18T10:52:36.302Z,57.00
2023-07-18T10:55:22.774Z,57.10
2023-07-18T10:58:18.179Z,57.00
2023-07-18T11:01:03.727Z,57.20
2023-07-18T11:03:49.620Z,55.90
2023-07-18T11:06:36.038Z,56.50
2023-07-18T11:09:22.601Z,56.50
2023-07-18T11:12:18.010Z,54.80
2023-07-18T11:15:04.200Z,55.30
2023-07-18T11:17:50.703Z,54.30
2023-07-18T11:20:37.191Z,54.70
2023-07-18T11:23:22.960Z,55.10
2023-07-18T11:26:13.718Z,54.30
2023-07-18T11:29:01.142Z,53.90
2023-07-18T11:31:46.614Z,52.70
2023-07-18T11:34:32.462Z,51.80
2023-07-18T11:37:20.559Z,51.10
2023-07-18T11:40:07.249Z,50.60
2023-07-18T11:42:56.466Z,50.70
2023-07-18T11:45:42.408Z,50.20
2023-07-18T11:48:30.737Z,49.70
2023-07-18T11:51:16.025Z,49.00
2023-07-18T11:54:02.906Z,45.40
2023-07-18T11:56:48.204Z,43.60
2023-07-18T11:59:34.089Z,44.00
2023-07-18T12:02:24.093Z,42.90
2023-07-18T12:05:12.855Z,42.70
2023-07-18T12:07:58.604Z,42.10
2023-07-18T12:10:53.072Z,39.20
2023-07-18T12:13:45.538Z,38.90
2023-07-18T12:16:32.529Z,39.30
2023-07-18T12:19:21.831Z,38.80
2023-07-18T12:22:07.403Z,38.00
2023-07-18T12:24:53.170Z,35.70
2023-07-18T12:27:39.942Z,34.70
2023-07-18T12:30:25.795Z,31.40
2023-07-18T12:33:11.621Z,30.90
2023-07-18T12:35:58.334Z,29.50
2023-07-18T12:38:44.032Z,29.80
2023-07-18T12:41:29.728Z,29.30
2023-07-18T12:44:19.643Z,27.60
2023-07-18T12:47:06.017Z,26.30
2023-07-18T12:52:40.810Z,27.10
2023-07-18T12:55:27.517Z,25.90
2023-07-18T12:58:14.454Z,25.30
2023-07-18T13:01:00.068Z,25.30
2023-07-18T13:03:45.754Z,25.10
2023-07-18T13:06:32.534Z,25.30
2023-07-18T13:09:18.407Z,24.30
2023-07-18T13:12:06.758Z,24.40
2023-07-18T13:14:55.487Z,24.60
2023-07-18T13:17:41.650Z,24.60
2023-07-18T13:20:27.949Z,25.40
2023-07-18T13:23:13.466Z,26.40
2023-07-18T13:25:59.384Z,25.60
2023-07-18T13:28:44.876Z,25.40
2023-07-18T13:31:31.326Z,25.50
2023-07-18T13:34:19.107Z,25.20
2023-07-18T13:37:04.794Z,25.20
2023-07-18T13:39:50.601Z,24.30
2023-07-18T13:42:36.195Z,23.70
2023-07-18T13:45:22.225Z,23.40
2023-07-18T13:48:09.819Z,24.40
2023-07-18T13:50:55.188Z,24.30
2023-07-18T13:53:42.645Z,24.00
2023-07-18T13:56:28.363Z,25.10
2023-07-18T13:59:13.984Z,26.60
2023-07-18T14:01:59.345Z,28.10
2023-07-18T14:04:46.305Z,29.00
2023-07-18T14:07:31.943Z,30.00
2023-07-18T14:10:17.448Z,30.80
2023-07-18T14:13:08.548Z,31.40
2023-07-18T14:15:53.820Z,32.10
2023-07-18T14:18:39.712Z,32.40
2023-07-18T14:21:26.339Z,32.90
2023-07-18T14:24:11.831Z,33.80
2023-07-18T14:26:57.130Z,33.20
2023-07-18T14:29:42.660Z,32.20
2023-07-18T14:32:28.472Z,32.90
2023-07-18T14:35:14.766Z,32.80
2023-07-18T14:38:00.346Z,30.00
2023-07-18T14:40:49.177Z,29.30
2023-07-18T14:43:35.285Z,29.90
2023-07-18T14:46:22.714Z,29.70
2023-07-18T14:49:08.575Z,30.40
2023-07-18T14:51:54.357Z,30.80
2023-07-18T14:54:40.202Z,30.00
2023-07-18T14:57:26.924Z,30.40
2023-07-18T15:00:13.700Z,30.80
2023-07-18T15:02:59.207Z,30.90
2023-07-18T15:05:44.903Z,31.50
2023-07-18T15:08:30.446Z,30.60
2023-07-18T15:11:15.789Z,29.80
2023-07-18T15:14:01.570Z,30.50
2023-07-18T15:16:46.992Z,31.50
2023-07-18T15:19:32.692Z,32.80
2023-07-18T15:22:21.025Z,32.00
2023-07-18T15:25:07.816Z,31.50
2023-07-18T15:27:53.303Z,32.30
2023-07-18T15:30:39.008Z,31.40
2023-07-18T15:33:27.144Z,32.30
2023-07-18T15:36:13.511Z,32.40
2023-07-18T15:38:58.869Z,31.50
2023-07-18T15:41:44.386Z,32.50
2023-07-18T15:44:29.992Z,32.50
2023-07-18T15:47:15.542Z,31.70
2023-07-18T15:50:01.522Z,31.10
2023-07-18T15:52:47.159Z,29.20
2023-07-18T15:55:32.760Z,28.10
2023-07-18T15:58:18.460Z,27.60
2023-07-18T16:01:05.240Z,27.30
2023-07-18T16:03:51.910Z,26.70
2023-07-18T16:06:38.703Z,26.20
2023-07-18T16:09:29.060Z,27.20
2023-07-18T16:12:14.385Z,27.70
2023-07-18T16:15:00.273Z,27.90
2023-07-18T16:17:45.924Z,28.10
2023-07-18T16:20:33.150Z,27.90
2023-07-18T16:23:21.885Z,27.30
2023-07-18T16:26:08.875Z,28.20
2023-07-18T16:28:54.516Z,29.40
2023-07-18T16:31:40.342Z,30.10
2023-07-18T16:34:26.080Z,30.00
2023-07-18T16:37:12.312Z,30.00
2023-07-18T16:39:58.188Z,30.70
2023-07-18T16:42:43.966Z,30.60
2023-07-18T16:45:29.691Z,30.60
2023-07-18T16:48:19.377Z,30.70
2023-07-18T16:51:04.664Z,30.80
2023-07-18T16:53:50.582Z,31.30
2023-07-18T16:56:36.865Z,32.40
2023-07-18T16:59:22.444Z,33.30
2023-07-18T17:02:08.233Z,34.50
2023-07-18T17:04:53.613Z,35.40
2023-07-18T17:07:39.007Z,36.20
2023-07-18T17:10:27.073Z,36.60
2023-07-18T17:13:12.825Z,36.70
2023-07-18T17:16:01.052Z,36.60
2023-07-18T17:18:46.966Z,36.00
2023-07-18T17:21:32.209Z,35.90
2023-07-18T17:24:18.306Z,35.90
2023-07-18T17:27:06.806Z,36.10
2023-07-18T17:29:52.568Z,36.80
2023-07-18T17:32:38.126Z,37.60
2023-07-18T17:35:24.660Z,38.20
2023-07-18T17:38:10.195Z,38.50
2023-07-18T17:40:55.448Z,39.10
2023-07-18T17:43:41.561Z,39.50
2023-07-18T17:46:27.344Z,40.00
2023-07-18T17:49:15.606Z,40.50
2023-07-18T17:52:00.948Z,41.20
2023-07-18T17:54:46.590Z,41.80
2023-07-18T17:57:32.456Z,42.50
2023-07-18T18:00:18.204Z,43.40
2023-07-18T18:03:05.144Z,44.00
2023-07-18T18:05:52.637Z,44.50
2023-07-18T18:08:38.076Z,45.00
2023-07-18T18:11:23.469Z,45.70
2023-07-18T18:14:08.986Z,46.30
2023-07-18T18:16:54.907Z,46.70
2023-07-18T18:19:40.297Z,47.70
2023-07-18T18:22:25.799Z,47.30
2023-07-18T18:25:11.378Z,47.50
2023-07-18T18:27:56.775Z,47.90
2023-07-18T18:30:42.233Z,48.20
2023-07-18T18:33:27.678Z,48.40
2023-07-18T18:36:14.107Z,48.90
2023-07-18T18:39:02.985Z,49.50
2023-07-18T18:41:48.274Z,50.10
2023-07-18T18:44:34.042Z,50.50
2023-07-18T18:47:19.404Z,50.90
2023-07-18T18:50:06.666Z,51.20
2023-07-18T18:52:52.016Z,51.40
2023-07-18T18:55:37.725Z,51.70
2023-07-18T18:58:25.639Z,51.70
2023-07-18T19:01:10.978Z,51.70
2023-07-18T19:03:57.000Z,51.70
2023-07-18T19:06:43.020Z,52.40
2023-07-18T19:09:30.613Z,51.80
2023-07-18T19:12:16.256Z,52.60
2023-07-18T19:15:01.852Z,52.30
2023-07-18T19:17:47.396Z,52.50
2023-07-18T19:20:33.070Z,52.70
2023-07-18T19:23:18.396Z,52.90
2023-07-18T19:26:04.185Z,53.00
2023-07-18T19:28:49.718Z,53.10
2023-07-18T19:31:35.533Z,53.00
2023-07-18T19:34:20.869Z,53.10
2023-07-18T19:37:06.613Z,53.80
2023-07-18T19:39:52.246Z,53.30
2023-07-18T19:42:37.699Z,53.30
2023-07-18T19:45:23.675Z,53.40
2023-07-18T19:48:12.052Z,53.40
2023-07-18T19:50:57.685Z,53.50
2023-07-18T19:53:46.067Z,53.50
2023-07-18T19:56:33.104Z,53.50
2023-07-18T19:59:18.916Z,53.70
2023-07-18T20:02:04.570Z,54.00
2023-07-18T20:04:49.903Z,54.20
2023-07-18T20:07:35.383Z,54.50
2023-07-18T20:10:21.427Z,54.90
2023-07-18T20:13:06.784Z,55.50
2023-07-18T20:15:54.692Z,55.80
2023-07-18T20:18:40.238Z,56.10
2023-07-18T20:21:25.492Z,56.90
2023-07-18T20:24:11.197Z,56.60
2023-07-18T20:26:56.803Z,56.80
2023-07-18T20:29:44.488Z,57.00
2023-07-18T20:32:30.017Z,57.10
2023-07-18T20:35:15.731Z,57.20
2023-07-18T20:38:01.792Z,57.30
2023-07-18T20:40:47.500Z,57.50
2023-07-18T20:43:33.334Z,57.60
2023-07-18T20:46:19.335Z,57.70
2023-07-18T20:49:04.960Z,57.90
2023-07-18T20:51:50.409Z,58.00
2023-07-18T20:54:37.469Z,58.20
2023-07-18T20:57:22.954Z,58.30
2023-07-18T21:00:09.273Z,58.50
2023-07-18T21:02:59.484Z,58.60
2023-07-18T21:05:52.074Z,58.80
2023-07-18T21:08:38.744Z,59.00
2023-07-18T21:11:24.038Z,59.20
2023-07-18T21:14:09.693Z,59.40
2023-07-18T21:16:55.185Z,59.50
2023-07-18T21:19:40.667Z,59.60
2023-07-18T21:22:26.328Z,59.70
2023-07-18T21:25:12.254Z,59.90
2023-07-18T21:27:59.292Z,60.10
2023-07-18T21:30:44.685Z,60.20
2023-07-18T21:33:30.777Z,60.80
2023-07-18T21:36:16.296Z,60.70
2023-07-18T21:39:02.401Z,61.10
2023-07-18T21:41:48.056Z,61.60
2023-07-18T21:44:33.791Z,61.50
2023-07-18T21:47:19.645Z,62.00
2023-07-18T21:50:05.434Z,62.30
2023-07-18T21:52:50.931Z,62.80
2023-07-18T21:55:37.282Z,62.90
2023-07-18T21:58:22.684Z,63.20
2023-07-18T22:01:08.043Z,63.40
2023-07-18T22:03:53.618Z,64.30
2023-07-18T22:06:39.044Z,63.90
2023-07-18T22:09:24.708Z,64.30
2023-07-18T22:12:10.206Z,64.50
2023-07-18T22:14:57.079Z,64.90
2023-07-18T22:17:42.882Z,65.40
2023-07-18T22:20:32.508Z,65.80
2023-07-18T22:23:18.242Z,66.10
2023-07-18T22:26:14.015Z,66.50
2023-07-18T22:29:00.378Z,66.90
2023-07-18T22:31:45.834Z,67.20
2023-07-18T22:34:32.150Z,67.30
2023-07-18T22:37:18.100Z,67.70
2023-07-18T22:40:03.900Z,67.90
2023-07-18T22:42:52.795Z,68.10
2023-07-18T22:45:38.146Z,68.00
2023-07-18T22:48:23.838Z,68.00
2023-07-18T22:51:09.730Z,67.90
2023-07-18T22:53:55.206Z,68.00
2023-07-18T22:56:40.496Z,68.10
2023-07-18T22:59:26.062Z,68.10
2023-07-18T23:02:11.270Z,68.20
2023-07-18T23:04:56.980Z,68.20
2023-07-18T23:07:42.785Z,68.30
2023-07-18T23:10:28.288Z,68.50
2023-07-18T23:13:16.252Z,68.60
2023-07-18T23:16:02.146Z,69.60
2023-07-18T23:18:47.719Z,69.00
2023-07-18T23:21:35.548Z,69.00
2023-07-18T23:24:21.501Z,68.90
2023-07-18T23:27:07.212Z,68.90
2023-07-18T23:29:52.788Z,69.20
2023-07-18T23:32:39.594Z,69.40
2023-07-18T23:35:28.749Z,69.50
2023-07-18T23:38:14.494Z,69.40
2023-07-18T23:41:00.265Z,69.30
2023-07-18T23:43:48.558Z,69.60
2023-07-18T23:46:34.518Z,69.90
2023-07-18T23:49:19.884Z,70.10
2023-07-18T23:52:05.891Z,70.30
2023-07-18T23:54:51.841Z,70.60
2023-07-18T23:57:37.449Z,70.50
